Time;durP1;ratioP1;P1;durP2;ratioP2;P2;SDS_P1;SDS_P2;PMS_P1;PMS_P2;Temp;Humidity;BMP_temperature;BMP_pressure;BME280_temperature;BME280_humidity;BME280_pressure;Samples;Min_cycle;Max_cycle;Signal;HPM_P1;HPM_P2
2021/07/08 00:01:43;;;;;;;31.30;22.02;;;14.70;99.90;;;;;;5006218;28;20069;-69
2021/07/08 00:04:09;;;;;;;;;;;14.70;99.90;;;;;;5001999;28;20042;-68
2021/07/08 00:06:35;;;;;;;26.00;19.08;;;14.60;99.90;;;;;;5001375;28;20006;-68
2021/07/08 00:09:01;;;;;;;30.02;22.17;;;14.70;99.90;;;;;;5003528;28;20047;-68
2021/07/08 00:11:27;;;;;;;31.73;22.42;;;14.60;99.90;;;;;;4998815;28;20086;-68
2021/07/08 00:13:54;;;;;;;31.25;22.83;;;14.60;99.90;;;;;;5005886;28;20980;-69
2021/07/08 00:16:19;;;;;;;32.35;23.00;;;14.50;99.90;;;;;;5005861;28;20046;-69
2021/07/08 00:18:45;;;;;;;35.42;22.80;;;14.50;99.90;;;;;;5006293;28;20149;-69
2021/07/08 00:21:11;;;;;;;38.15;24.77;;;14.50;99.90;;;;;;4990399;28;20050;-68
2021/07/08 00:23:37;;;;;;;28.73;21.50;;;14.50;99.90;;;;;;5006304;28;20097;-69
2021/07/08 00:26:03;;;;;;;32.85;22.35;;;14.50;99.90;;;;;;4993751;28;20453;-68
2021/07/08 00:28:29;;;;;;;39.45;25.23;;;14.50;99.90;;;;;;4997197;28;20096;-69
2021/07/08 00:30:55;;;;;;;29.65;21.83;;;14.50;99.90;;;;;;4991969;28;20055;-69
2021/07/08 00:33:22;;;;;;;24.85;20.33;;;14.50;99.90;;;;;;5006042;28;20038;-69
2021/07/08 00:35:49;;;;;;;29.25;21.13;;;14.50;99.90;;;;;;4993913;28;20054;-69
2021/07/08 00:38:15;;;;;;;30.40;22.73;;;14.50;99.90;;;;;;5005637;28;20072;-69
2021/07/08 00:40:42;;;;;;;33.40;23.52;;;14.60;99.90;;;;;;5004487;28;20478;-69
2021/07/08 00:43:09;;;;;;;32.03;24.42;;;14.50;99.90;;;;;;5005251;28;20114;-69
2021/07/08 00:45:35;;;;;;;42.70;27.25;;;14.60;99.90;;;;;;4995075;28;20049;-69
2021/07/08 00:48:01;;;;;;;36.53;26.25;;;14.60;99.90;;;;;;5001069;28;20081;-69
2021/07/08 00:50:33;;;;;;;44.57;30.30;;;14.60;99.90;;;;;;5005662;28;20050;-69
2021/07/08 00:52:59;;;;;;;43.03;30.90;;;14.70;99.90;;;;;;5002113;28;20050;-68
2021/07/08 00:55:26;;;;;;;46.33;29.50;;;14.80;99.90;;;;;;5004842;28;20058;-70
2021/07/08 00:57:52;;;;;;;46.08;28.50;;;14.80;99.90;;;;;;5005536;28;20512;-69
2021/07/08 01:00:27;;;;;;;44.90;30.38;;;14.80;99.90;;;;;;5004590;28;20170;-69
2021/07/08 01:02:54;;;;;;;41.78;27.17;;;14.80;99.90;;;;;;5004219;28;20048;-68
2021/07/08 01:05:29;;;;;;;33.15;24.52;;;14.80;99.90;;;;;;5000700;28;20042;-70
2021/07/08 01:07:56;;;;;;;29.33;21.80;;;14.80;99.90;;;;;;4996610;28;20054;-68
2021/07/08 01:10:22;;;;;;;32.80;22.40;;;14.80;99.90;;;;;;5001594;28;20046;-70
2021/07/08 01:12:48;;;;;;;33.00;22.27;;;14.80;99.90;;;;;;4996525;28;20054;-69
2021/07/08 01:15:14;;;;;;;28.38;21.23;;;14.70;99.90;;;;;;5003137;28;20049;-69
2021/07/08 01:17:42;;;;;;;32.40;21.85;;;14.70;99.90;;;;;;4994631;28;20043;-69
2021/07/08 01:20:09;;;;;;;30.08;22.65;;;14.70;99.90;;;;;;5005007;28;20047;-69
2021/07/08 01:22:36;;;;;;;31.45;22.33;;;14.60;99.90;;;;;;5004821;28;20042;-69
2021/07/08 01:25:04;;;;;;;27.13;20.85;;;14.60;99.90;;;;;;5001436;28;20502;-69
2021/07/08 01:27:31;;;;;;;32.60;22.30;;;14.60;99.90;;;;;;5003169;28;20053;-69
2021/07/08 01:29:58;;;;;;;29.92;21.65;;;14.50;99.90;;;;;;5005189;28;20418;-70
2021/07/08 01:32:24;;;;;;;30.88;23.08;;;14.50;99.90;;;;;;4994665;28;20046;-69
2021/07/08 01:34:50;;;;;;;31.73;22.08;;;14.60;99.90;;;;;;5003225;28;20050;-68
2021/07/08 01:37:17;;;;;;;23.60;18.60;;;14.70;99.90;;;;;;4997058;28;20491;-69
2021/07/08 01:39:46;;;;;;;29.33;20.85;;;14.60;99.90;;;;;;4991109;28;20048;-69
2021/07/08 01:42:13;;;;;;;33.70;23.67;;;14.60;99.90;;;;;;4990945;28;20046;-70
2021/07/08 01:44:39;;;;;;;36.55;24.42;;;14.60;99.90;;;;;;4993847;28;20043;-69
2021/07/08 01:47:05;;;;;;;40.53;24.35;;;14.50;99.90;;;;;;4999144;28;20494;-70
2021/07/08 01:49:33;;;;;;;53.45;27.67;;;14.50;99.90;;;;;;5004556;28;20050;-69
2021/07/08 01:51:59;;;;;;;;;;;14.50;99.90;;;;;;4990938;28;20125;-70
2021/07/08 01:54:25;;;;;;;38.88;24.15;;;14.50;99.90;;;;;;4997957;28;19976;-69
2021/07/08 01:56:51;;;;;;;52.42;28.70;;;14.40;99.90;;;;;;5001010;28;20235;-70
2021/07/08 01:59:17;;;;;;;45.63;28.63;;;14.50;99.90;;;;;;4997851;28;20043;-70
2021/07/08 02:01:42;;;;;;;41.03;25.52;;;14.50;99.90;;;;;;4998847;28;20074;-71
2021/07/08 02:04:08;;;;;;;37.30;23.50;;;14.50;99.90;;;;;;4998702;28;20046;-70
2021/07/08 02:06:34;;;;;;;31.30;22.48;;;14.50;99.90;;;;;;4986702;28;20035;-70
2021/07/08 02:09:03;;;;;;;44.13;26.92;;;14.50;99.90;;;;;;5002443;28;20093;-70
2021/07/08 02:11:29;;;;;;;;;;;14.50;99.90;;;;;;5004836;28;20042;-70
2021/07/08 02:13:55;;;;;;;38.50;24.25;;;14.50;99.90;;;;;;4999216;28;19921;-70
2021/07/08 02:16:21;;;;;;;31.25;23.30;;;14.50;99.90;;;;;;4997682;28;20422;-69
2021/07/08 02:18:47;;;;;;;39.75;25.95;;;14.50;99.90;;;;;;5000900;28;20065;-70
2021/07/08 02:21:13;;;;;;;46.58;27.35;;;14.40;99.90;;;;;;5003586;28;20046;-69
2021/07/08 02:23:39;;;;;;;56.05;26.55;;;14.30;99.90;;;;;;4991720;28;20133;-69
2021/07/08 02:26:06;;;;;;;36.22;25.98;;;14.20;99.90;;;;;;4992613;28;20450;-70
2021/07/08 02:28:33;;;;;;;50.45;29.08;;;14.30;99.90;;;;;;4989531;28;20054;-70
2021/07/08 02:30:59;;;;;;;48.67;27.52;;;14.20;99.90;;;;;;5003154;28;20042;-69
2021/07/08 02:33:25;;;;;;;42.22;26.38;;;14.10;99.90;;;;;;5003192;28;20046;-71
2021/07/08 02:35:52;;;;;;;43.70;27.35;;;14.00;99.90;;;;;;5003737;28;20057;-70
2021/07/08 02:38:17;;;;;;;41.55;24.80;;;14.00;99.90;;;;;;4989752;28;20046;-70
2021/07/08 02:40:43;;;;;;;47.13;28.55;;;14.00;99.90;;;;;;5002976;28;20038;-71
2021/07/08 02:43:10;;;;;;;35.47;24.10;;;14.00;99.90;;;;;;5000514;28;20042;-70
2021/07/08 02:45:39;;;;;;;52.35;28.95;;;14.10;99.90;;;;;;4992753;28;20042;-70
2021/07/08 02:48:08;;;;;;;45.67;26.20;;;14.10;99.90;;;;;;5003829;28;20053;-70
2021/07/08 02:50:35;;;;;;;46.78;25.67;;;14.00;99.90;;;;;;5004089;28;20456;-69
2021/07/08 02:53:01;;;;;;;51.28;28.42;;;14.00;99.90;;;;;;4998370;28;20042;-70
2021/07/08 02:55:28;;;;;;;53.42;29.70;;;14.00;99.90;;;;;;5003587;28;20129;-70
2021/07/08 02:57:54;;;;;;;49.20;28.25;;;14.00;99.90;;;;;;4991613;28;20134;-69
2021/07/08 03:00:22;;;;;;;55.70;28.30;;;14.00;99.90;;;;;;5001315;28;20476;-70
2021/07/08 03:02:48;;;;;;;46.67;27.33;;;13.90;99.90;;;;;;5004036;28;20054;-69
2021/07/08 03:05:15;;;;;;;47.03;26.95;;;13.90;99.90;;;;;;4997423;28;20387;-69
2021/07/08 03:07:41;;;;;;;58.25;30.30;;;13.90;99.90;;;;;;4997872;28;20064;-70
2021/07/08 03:10:13;;;;;;;54.67;29.92;;;13.80;99.90;;;;;;5001572;28;20046;-70
2021/07/08 03:12:39;;;;;;;42.33;25.90;;;13.80;99.90;;;;;;5018341;28;20046;-69
2021/07/08 03:15:07;;;;;;;45.65;27.17;;;13.70;99.90;;;;;;4994311;28;20054;-69
2021/07/08 03:17:34;;;;;;;58.35;30.15;;;13.60;99.90;;;;;;5003031;28;20047;-69
2021/07/08 03:20:00;;;;;;;57.28;29.77;;;13.60;99.90;;;;;;5000097;28;20510;-69
2021/07/08 03:22:26;;;;;;;43.85;26.67;;;13.60;99.90;;;;;;5001910;28;20066;-69
2021/07/08 03:24:52;;;;;;;51.85;27.55;;;13.60;99.90;;;;;;5000688;28;20050;-69
2021/07/08 03:27:18;;;;;;;39.10;24.70;;;13.60;99.90;;;;;;5000660;28;20102;-69
2021/07/08 03:29:43;;;;;;;46.92;24.17;;;13.60;99.90;;;;;;5002981;28;20069;-69
2021/07/08 03:32:09;;;;;;;34.03;21.17;;;13.60;99.90;;;;;;4995918;28;20073;-69
2021/07/08 03:34:35;;;;;;;35.17;20.45;;;13.50;99.90;;;;;;4989885;28;20129;-69
2021/07/08 03:37:01;;;;;;;33.10;20.88;;;13.50;99.90;;;;;;4997649;28;20046;-70
2021/07/08 03:39:27;;;;;;;31.88;19.88;;;13.60;99.90;;;;;;5003112;28;20118;-69
2021/07/08 03:41:55;;;;;;;29.52;18.08;;;13.50;99.90;;;;;;5003319;28;20053;-69
2021/07/08 03:44:21;;;;;;;25.58;17.63;;;13.50;99.90;;;;;;5002319;28;20540;-69
2021/07/08 03:46:47;;;;;;;18.50;15.18;;;13.40;99.90;;;;;;4991273;28;20050;-70
2021/07/08 03:49:15;;;;;;;24.42;17.52;;;13.40;99.90;;;;;;4997475;28;20126;-70
2021/07/08 03:51:40;;;;;;;23.98;17.02;;;13.50;99.90;;;;;;4988531;28;20042;-71
2021/07/08 03:54:06;;;;;;;22.27;15.65;;;13.50;99.90;;;;;;4989047;28;20065;-70
2021/07/08 03:56:32;;;;;;;26.02;17.10;;;13.50;99.90;;;;;;4989606;28;20426;-71
2021/07/08 03:58:58;;;;;;;21.48;14.75;;;13.60;99.90;;;;;;4992959;28;20042;-71
2021/07/08 04:01:25;;;;;;;28.00;18.05;;;13.60;99.90;;;;;;5000039;28;20052;-71
2021/07/08 04:03:53;;;;;;;30.92;20.15;;;13.70;99.90;;;;;;4989974;28;20074;-71
2021/07/08 04:06:19;;;;;;;30.73;19.55;;;13.80;99.90;;;;;;4991164;28;20054;-71
2021/07/08 04:08:45;;;;;;;28.15;18.77;;;13.90;99.90;;;;;;5000185;28;20046;-70
2021/07/08 04:11:11;;;;;;;20.17;17.00;;;13.90;99.90;;;;;;5003756;28;20518;-70
2021/07/08 04:13:37;;;;;;;20.15;16.27;;;14.00;99.90;;;;;;4998901;28;20062;-69
2021/07/08 04:16:03;;;;;;;25.05;17.25;;;14.00;99.90;;;;;;4999233;28;20534;-70
2021/07/08 04:18:28;;;;;;;23.65;17.83;;;14.10;99.90;;;;;;4991899;28;20098;-70
2021/07/08 04:21:03;;;;;;;19.63;16.20;;;14.10;99.90;;;;;;4992112;28;20415;-71
2021/07/08 04:23:34;;;;;;;20.30;16.73;;;14.20;99.90;;;;;;4996118;28;20112;-69
2021/07/08 04:26:00;;;;;;;23.17;16.88;;;14.20;99.90;;;;;;4989074;28;20043;-70
2021/07/08 04:28:31;;;;;;;18.73;16.55;;;14.20;99.90;;;;;;5000798;28;20077;-70
2021/07/08 04:30:57;;;;;;;20.80;17.63;;;14.40;99.90;;;;;;4991099;28;20035;-72
2021/07/08 04:33:23;;;;;;;17.33;14.95;;;14.60;99.90;;;;;;4996013;28;20109;-70
2021/07/08 04:35:49;;;;;;;18.70;15.85;;;14.60;99.90;;;;;;5005301;28;20069;-71
2021/07/08 04:38:16;;;;;;;24.77;16.00;;;14.70;99.90;;;;;;5005892;28;20114;-70
2021/07/08 04:41:02;;;;;;;16.30;13.98;;;14.80;99.90;;;;;;4999278;28;20110;-70
2021/07/08 04:43:28;;;;;;;17.88;13.77;;;14.90;99.90;;;;;;5005755;28;20084;-70
2021/07/08 04:45:54;;;;;;;15.93;13.85;;;15.00;99.90;;;;;;5004595;28;20478;-70
2021/07/08 04:48:20;;;;;;;17.85;14.25;;;15.10;99.90;;;;;;5005701;28;20169;-71
2021/07/08 04:50:46;;;;;;;20.73;14.65;;;15.20;99.90;;;;;;5005866;28;20034;-69
2021/07/08 04:53:18;;;;;;;16.30;13.75;;;15.10;99.90;;;;;;4990743;28;20049;-70
2021/07/08 04:55:45;;;;;;;20.25;13.45;;;15.30;99.90;;;;;;4991728;28;20039;-71
2021/07/08 04:58:11;;;;;;;14.48;12.57;;;15.40;99.90;;;;;;5003733;28;20046;-70
2021/07/08 05:00:37;;;;;;;14.55;13.05;;;15.50;99.90;;;;;;5000172;28;20050;-70
2021/07/08 05:03:07;;;;;;;14.38;12.57;;;15.70;99.90;;;;;;5003345;28;20406;-71
2021/07/08 05:05:33;;;;;;;17.35;12.27;;;15.80;99.90;;;;;;4999809;28;20553;-70
2021/07/08 05:07:59;;;;;;;16.42;11.90;;;15.90;99.90;;;;;;4996909;28;20047;-71
2021/07/08 05:10:25;;;;;;;14.88;11.75;;;16.00;99.90;;;;;;5004223;28;20054;-64
2021/07/08 05:12:51;;;;;;;20.02;11.40;;;16.00;99.90;;;;;;4993258;28;20049;-59
2021/07/08 05:15:17;;;;;;;17.75;12.20;;;16.10;99.90;;;;;;4999115;28;20054;-59
2021/07/08 05:17:45;;;;;;;19.77;13.32;;;16.10;99.90;;;;;;4996832;28;20051;-59
2021/07/08 05:20:12;;;;;;;20.17;12.68;;;16.10;99.90;;;;;;5004706;28;20046;-59
2021/07/08 05:22:39;;;;;;;19.60;11.98;;;16.20;99.90;;;;;;4988881;28;20057;-60
2021/07/08 05:25:06;;;;;;;17.33;12.07;;;16.30;99.90;;;;;;4987911;28;20186;-60
2021/07/08 05:27:33;;;;;;;20.08;13.73;;;16.40;99.90;;;;;;4993098;28;20162;-60
2021/07/08 05:30:00;;;;;;;17.70;11.48;;;16.50;99.90;;;;;;4993573;28;20102;-59
2021/07/08 05:32:26;;;;;;;20.73;14.68;;;16.60;99.90;;;;;;4992949;28;20046;-60
2021/07/08 05:34:52;;;;;;;19.63;13.07;;;16.60;99.90;;;;;;4996576;28;20057;-59
2021/07/08 05:37:17;;;;;;;16.88;12.30;;;17.20;99.90;;;;;;5003572;28;20100;-59
2021/07/08 05:39:43;;;;;;;15.10;12.95;;;17.10;99.90;;;;;;4991576;28;20038;-59
2021/07/08 05:42:09;;;;;;;18.25;11.77;;;17.20;99.90;;;;;;5004051;28;20054;-59
2021/07/08 05:44:35;;;;;;;18.63;12.40;;;17.20;99.90;;;;;;4996246;28;20042;-60
2021/07/08 05:47:00;;;;;;;18.35;11.95;;;17.30;99.90;;;;;;4998902;28;20411;-59
2021/07/08 05:49:27;;;;;;;15.27;11.05;;;17.40;99.90;;;;;;4994934;28;20514;-59
2021/07/08 05:51:53;;;;;;;17.40;10.85;;;;;;;;;;4992689;28;20072;-59
2021/07/08 05:54:19;;;;;;;15.38;9.77;;;17.90;99.90;;;;;;5002793;28;20053;-59
2021/07/08 05:56:45;;;;;;;15.80;10.75;;;17.90;99.90;;;;;;5003770;28;20046;-59
2021/07/08 05:59:11;;;;;;;12.55;9.98;;;18.10;99.90;;;;;;5004587;28;20491;-59
2021/07/08 06:01:36;;;;;;;12.50;9.90;;;18.20;99.90;;;;;;5003612;28;20057;-59
2021/07/08 06:04:02;;;;;;;12.35;8.60;;;18.30;99.90;;;;;;4998969;28;20050;-59
2021/07/08 06:06:28;;;;;;;12.90;7.07;;;18.60;99.90;;;;;;5000865;28;20046;-59
2021/07/08 06:08:54;;;;;;;11.68;8.10;;;18.80;99.90;;;;;;4984514;28;20058;-59
2021/07/08 06:11:19;;;;;;;12.80;7.88;;;18.90;99.90;;;;;;5000711;28;20042;-59
2021/07/08 06:13:45;;;;;;;19.17;8.73;;;18.90;99.90;;;;;;4997537;28;20057;-59
2021/07/08 06:16:12;;;;;;;12.15;7.18;;;19.30;99.90;;;;;;4990441;28;20050;-59
2021/07/08 06:18:38;;;;;;;12.18;8.10;;;19.30;99.90;;;;;;4990586;28;20667;-59
2021/07/08 06:21:04;;;;;;;12.65;6.80;;;19.30;99.90;;;;;;5000301;28;20088;-59
2021/07/08 06:23:31;;;;;;;9.48;7.72;;;19.40;99.90;;;;;;4989359;28;20060;-60
2021/07/08 06:25:57;;;;;;;12.50;8.60;;;19.60;99.90;;;;;;5002685;28;20050;-60
2021/07/08 06:28:23;;;;;;;9.77;6.95;;;19.70;99.90;;;;;;5002186;28;20072;-59
2021/07/08 06:30:49;;;;;;;10.75;7.28;;;19.80;99.90;;;;;;4996003;28;20074;-60
2021/07/08 06:33:15;;;;;;;12.15;8.60;;;20.00;99.90;;;;;;4996706;28;20061;-60
2021/07/08 06:35:41;;;;;;;12.45;7.88;;;20.20;99.90;;;;;;5001336;28;21135;-59
2021/07/08 06:38:07;;;;;;;10.32;7.72;;;20.30;99.90;;;;;;5003101;28;20053;-60
2021/07/08 06:40:33;;;;;;;8.90;7.35;;;20.30;99.90;;;;;;5002634;28;20042;-59
2021/07/08 06:43:00;;;;;;;10.98;7.70;;;20.30;99.90;;;;;;4997762;28;20110;-59
2021/07/08 06:45:26;;;;;;;12.75;7.63;;;20.30;99.90;;;;;;5000461;28;20046;-60
2021/07/08 06:48:01;;;;;;;9.37;7.10;;;20.30;99.90;;;;;;5003616;28;20045;-59
2021/07/08 06:50:33;;;;;;;12.75;8.27;;;20.50;99.90;;;;;;5002063;28;21281;-59
2021/07/08 06:53:00;;;;;;;8.00;6.95;;;20.50;99.90;;;;;;4996684;28;20073;-60
2021/07/08 06:55:26;;;;;;;9.73;6.85;;;20.50;99.90;;;;;;4995846;28;20065;-61
2021/07/08 06:57:52;;;;;;;11.57;6.80;;;20.60;99.90;;;;;;4993160;28;20046;-59
2021/07/08 07:00:18;;;;;;;13.70;7.35;;;20.70;99.90;;;;;;4989749;28;20046;-59
2021/07/08 07:02:44;;;;;;;11.00;7.05;;;20.70;99.90;;;;;;5002615;28;20050;-60
2021/07/08 07:05:10;;;;;;;13.00;7.80;;;20.60;99.90;;;;;;4986489;28;20058;-60
2021/07/08 07:07:35;;;;;;;7.00;4.90;;;20.70;99.90;;;;;;4995536;28;20062;-61
2021/07/08 07:10:01;;;;;;;7.72;6.15;;;20.80;99.90;;;;;;4988669;28;20046;-60
2021/07/08 07:12:27;;;;;;;7.55;5.65;;;20.90;99.90;;;;;;4995525;28;20038;-60
2021/07/08 07:14:53;;;;;;;8.05;5.45;;;21.10;99.90;;;;;;4989358;28;20055;-59
2021/07/08 07:17:18;;;;;;;11.82;7.10;;;21.30;99.90;;;;;;4999756;28;20042;-59
2021/07/08 07:19:44;;;;;;;7.90;5.60;;;21.30;99.90;;;;;;4988500;28;20043;-58
2021/07/08 07:22:10;;;;;;;14.30;6.85;;;21.50;99.90;;;;;;4995903;28;20048;-59
2021/07/08 07:24:35;;;;;;;10.07;6.10;;;21.60;99.90;;;;;;4989831;28;20117;-59
2021/07/08 07:27:01;;;;;;;9.85;6.82;;;21.70;99.90;;;;;;4990357;28;20114;-60
2021/07/08 07:29:27;;;;;;;9.93;5.60;;;21.70;99.90;;;;;;4994126;28;20640;-60
2021/07/08 07:31:53;;;;;;;9.70;4.70;;;21.80;99.90;;;;;;4992322;28;20047;-60
2021/07/08 07:34:20;;;;;;;16.02;6.38;;;21.80;99.90;;;;;;4996935;28;20045;-60
2021/07/08 07:36:46;;;;;;;;;;;22.00;99.90;;;;;;4998524;28;20046;-60
2021/07/08 07:39:12;;;;;;;7.93;5.18;;;22.10;99.90;;;;;;4995385;28;19942;-60
2021/07/08 07:41:38;;;;;;;10.57;6.32;;;22.10;99.90;;;;;;5000730;28;20076;-60
2021/07/08 07:44:04;;;;;;;9.25;4.10;;;22.10;99.90;;;;;;4997135;28;20102;-60
2021/07/08 07:46:29;;;;;;;9.07;4.78;;;22.40;99.90;;;;;;4996815;28;20038;-60
2021/07/08 07:48:55;;;;;;;8.98;5.07;;;22.40;99.90;;;;;;5001242;28;20046;-60
2021/07/08 07:51:22;;;;;;;10.05;6.47;;;22.40;99.90;;;;;;4996209;28;20052;-60
2021/07/08 07:53:48;;;;;;;7.93;5.07;;;22.20;99.90;;;;;;4989589;28;20054;-60
2021/07/08 07:56:16;;;;;;;10.30;4.15;;;22.20;99.90;;;;;;4995486;28;20073;-60
2021/07/08 07:58:42;;;;;;;10.55;5.05;;;22.20;99.90;;;;;;5004480;28;20053;-60
2021/07/08 08:01:08;;;;;;;11.35;5.07;;;22.40;99.90;;;;;;4994197;28;20555;-60
2021/07/08 08:03:34;;;;;;;9.27;5.78;;;22.60;99.90;;;;;;4997152;28;20042;-60
2021/07/08 08:08:45;;;;;;;8.55;5.10;;;23.10;99.90;;;;;;4995695;28;20042;-60
2021/07/08 08:11:11;;;;;;;10.25;5.85;;;23.20;99.90;;;;;;4998761;28;20077;-60
2021/07/08 08:13:38;;;;;;;12.15;6.43;;;23.30;99.90;;;;;;5000298;28;20034;-61
2021/07/08 08:16:07;;;;;;;6.80;4.90;;;23.30;99.90;;;;;;4997134;28;20565;-60
2021/07/08 08:18:34;;;;;;;6.88;4.07;;;23.40;99.90;;;;;;4995620;28;20066;-61
2021/07/08 08:21:00;;;;;;;13.35;5.35;;;23.50;99.90;;;;;;5008815;28;20069;-60
2021/07/08 08:23:26;;;;;;;8.85;5.18;;;23.60;99.90;;;;;;5001614;28;20038;-60
2021/07/08 08:25:52;;;;;;;9.60;4.85;;;23.50;99.90;;;;;;5000285;28;20050;-57
2021/07/08 08:28:17;;;;;;;10.25;4.97;;;23.20;99.90;;;;;;4993690;28;20047;-57
2021/07/08 08:30:44;;;;;;;6.57;4.15;;;23.20;99.90;;;;;;4993451;28;20039;-58
2021/07/08 08:33:11;;;;;;;13.40;5.32;;;23.10;99.90;;;;;;4996518;28;20081;-57
2021/07/08 08:35:37;;;;;;;13.23;5.27;;;23.20;99.90;;;;;;4991099;28;20569;-67
2021/07/08 08:38:03;;;;;;;8.15;5.20;;;22.90;99.90;;;;;;5006396;28;20309;-67
2021/07/08 08:40:29;;;;;;;7.70;5.28;;;22.70;99.90;;;;;;5005036;28;20046;-68
2021/07/08 08:42:55;;;;;;;12.13;5.47;;;22.60;99.90;;;;;;5001677;28;20127;-68
2021/07/08 08:45:21;;;;;;;12.35;6.05;;;22.40;99.90;;;;;;4998575;28;20048;-68
2021/07/08 08:48:08;;;;;;;10.93;5.53;;;22.30;99.90;;;;;;5003326;28;20057;-68
2021/07/08 08:50:45;;;;;;;8.70;6.32;;;22.50;99.90;;;;;;4999224;28;20057;-68
2021/07/08 08:53:13;;;;;;;11.65;5.60;;;22.50;99.90;;;;;;5005296;28;20053;-68
2021/07/08 08:55:41;;;;;;;6.80;5.57;;;22.50;99.90;;;;;;5004308;28;20051;-69
2021/07/08 08:58:09;;;;;;;11.43;5.65;;;22.70;99.90;;;;;;5002850;28;20069;-69
2021/07/08 09:00:50;;;;;;;8.63;5.32;;;22.80;99.90;;;;;;5004986;28;20043;-69
2021/07/08 09:03:19;;;;;;;10.85;5.55;;;22.70;99.90;;;;;;5002104;28;20057;-69
2021/07/08 09:05:48;;;;;;;8.90;5.45;;;22.70;99.90;;;;;;4992715;28;20046;-68
2021/07/08 09:08:16;;;;;;;8.77;4.78;;;22.60;99.90;;;;;;4999397;28;20050;-68
2021/07/08 09:11:02;;;;;;;8.32;4.60;;;22.70;99.90;;;;;;5005267;28;20047;-68
2021/07/08 09:13:46;;;;;;;6.15;4.60;;;22.80;99.90;;;;;;5004915;28;20413;-68
2021/07/08 09:16:17;;;;;;;11.95;5.10;;;23.10;99.90;;;;;;5003824;28;20130;-69
2021/07/08 09:18:54;;;;;;;7.38;4.60;;;23.40;99.90;;;;;;5002017;28;20097;-68
2021/07/08 09:21:21;;;;;;;8.38;5.13;;;23.50;99.90;;;;;;4997226;28;20070;-69
2021/07/08 09:24:11;;;;;;;8.27;3.58;;;23.30;99.90;;;;;;5000888;28;20157;-68
2021/07/08 09:26:39;;;;;;;6.95;3.92;;;23.30;99.90;;;;;;5004767;28;20049;-69
2021/07/08 09:29:07;;;;;;;9.35;4.97;;;23.50;99.90;;;;;;5005165;28;20057;-68
2021/07/08 09:31:35;;;;;;;6.50;3.75;;;23.60;99.90;;;;;;4995402;28;20038;-68
2021/07/08 09:34:28;;;;;;;11.63;5.13;;;23.60;99.90;;;;;;4987922;28;20082;-68
2021/07/08 09:37:12;;;;;;;11.45;5.18;;;23.60;99.90;;;;;;5003963;28;20046;-68
2021/07/08 09:39:41;;;;;;;7.20;4.63;;;23.50;99.90;;;;;;5002018;28;20516;-68
2021/07/08 09:42:09;;;;;;;6.72;4.43;;;23.50;99.90;;;;;;4994065;28;20047;-68
2021/07/08 09:44:35;;;;;;;11.75;4.45;;;23.60;99.90;;;;;;5004115;28;20046;-68
2021/07/08 09:47:02;;;;;;;8.00;4.60;;;23.00;99.90;;;;;;5003432;28;20042;-69
2021/07/08 09:49:28;;;;;;;9.98;4.65;;;23.40;99.90;;;;;;5002479;28;20046;-68
2021/07/08 09:51:55;;;;;;;10.05;5.18;;;23.40;99.90;;;;;;5004346;28;20042;-69
2021/07/08 09:57:36;;;;;;;9.40;4.95;;;23.70;99.90;;;;;;5004376;28;20061;-69
2021/07/08 10:00:24;;;;;;;8.93;5.35;;;23.90;99.90;;;;;;4999126;28;20042;-69
2021/07/08 10:02:53;;;;;;;9.48;5.15;;;24.00;99.90;;;;;;4998657;28;20155;-68
2021/07/08 10:05:20;;;;;;;7.75;5.20;;;24.10;99.90;;;;;;5004102;28;20489;-68
2021/07/08 10:07:46;;;;;;;11.68;5.18;;;23.60;99.90;;;;;;5003553;28;20046;-68
2021/07/08 10:10:13;;;;;;;12.13;5.18;;;23.70;99.90;;;;;;5004275;28;20046;-68
2021/07/08 10:12:40;;;;;;;11.23;4.78;;;23.90;99.90;;;;;;4993574;28;20049;-68
2021/07/08 10:15:08;;;;;;;;;;;23.80;99.90;;;;;;4990956;28;20050;-68
2021/07/08 10:17:38;;;;;;;10.35;5.22;;;23.80;99.90;;;;;;4991705;28;20374;-68
2021/07/08 10:20:10;;;;;;;11.05;5.20;;;23.80;99.90;;;;;;4997754;28;20047;-68
2021/07/08 10:22:38;;;;;;;9.95;5.18;;;23.60;99.90;;;;;;4990952;28;20034;-68
2021/07/08 10:25:08;;;;;;;10.80;5.32;;;23.60;99.90;;;;;;4998914;28;20042;-68
2021/07/08 10:27:42;;;;;;;9.38;4.88;;;23.50;99.90;;;;;;4998811;28;20038;-68
2021/07/08 10:30:09;;;;;;;10.80;5.50;;;23.40;99.90;;;;;;4992507;28;20486;-68
2021/07/08 10:32:35;;;;;;;8.40;4.70;;;23.40;99.90;;;;;;5000787;28;20038;-69
2021/07/08 10:35:01;;;;;;;7.47;4.20;;;23.50;99.90;;;;;;5001357;28;20109;-69
2021/07/08 10:37:33;;;;;;;8.05;4.18;;;23.30;99.90;;;;;;5003240;28;20043;-69
2021/07/08 10:40:00;;;;;;;6.15;4.20;;;23.40;99.90;;;;;;5003779;28;20042;-69
2021/07/08 10:42:45;;;;;;;7.13;3.80;;;23.50;99.90;;;;;;5003042;28;20046;-68
2021/07/08 10:45:22;;;;;;;7.82;4.00;;;23.50;99.90;;;;;;4998878;28;20050;-68
2021/07/08 10:47:50;;;;;;;5.18;3.40;;;23.80;99.90;;;;;;5003350;28;20046;-68
2021/07/08 10:50:39;;;;;;;5.40;2.95;;;24.10;99.90;;;;;;5003206;28;20042;-68
2021/07/08 10:53:17;;;;;;;7.10;4.15;;;24.40;99.90;;;;;;4999981;28;20082;-68
2021/07/08 10:55:45;;;;;;;8.85;3.55;;;24.30;99.90;;;;;;5002993;28;20050;-67
2021/07/08 10:58:43;;;;;;;8.68;3.53;;;24.50;99.90;;;;;;4998440;28;20108;-67
2021/07/08 11:01:31;;;;;;;8.68;3.83;;;24.70;99.90;;;;;;4997015;28;20046;-68
2021/07/08 11:04:02;;;;;;;6.07;3.47;;;24.50;99.90;;;;;;4988952;28;20054;-68
2021/07/08 11:06:42;;;;;;;8.07;3.85;;;24.80;99.90;;;;;;5005901;28;20051;-68
2021/07/08 11:09:16;;;;;;;6.88;3.72;;;24.70;99.90;;;;;;5000290;28;20042;-69
2021/07/08 11:11:45;;;;;;;11.55;3.45;;;24.70;99.90;;;;;;5009676;28;20034;-68
2021/07/08 11:14:12;;;;;;;6.85;4.53;;;24.60;99.90;;;;;;5006598;28;20076;-69
2021/07/08 11:16:43;;;;;;;6.90;4.40;;;24.30;99.90;;;;;;5004480;28;20050;-69
2021/07/08 11:19:32;;;;;;;9.80;4.03;;;24.20;99.90;;;;;;5009478;28;20051;-61
2021/07/08 11:21:59;;;;;;;;;;;24.00;99.90;;;;;;5008724;28;20462;-61
2021/07/08 11:24:47;;;;;;;6.35;3.10;;;24.10;99.90;;;;;;5003529;28;19925;-61
2021/07/08 11:27:32;;;;;;;8.68;3.25;;;24.50;99.90;;;;;;4997474;28;20046;-61
2021/07/08 11:30:02;;;;;;;8.88;2.67;;;24.60;99.90;;;;;;5009773;28;20520;-62
2021/07/08 11:35:38;;;;;;;5.63;2.83;;;25.00;98.90;;;;;;5008543;28;20491;-62
2021/07/08 11:38:08;;;;;;;7.13;3.30;;;25.00;98.30;;;;;;5001759;28;20050;-62
2021/07/08 11:40:42;;;;;;;5.43;2.60;;;25.20;97.80;;;;;;5008179;28;20038;-62
2021/07/08 11:43:16;;;;;;;8.93;3.17;;;25.70;97.40;;;;;;5001943;28;20046;-62
2021/07/08 11:45:43;;;;;;;12.23;4.05;;;25.60;96.50;;;;;;5008805;28;20105;-62
2021/07/08 11:48:08;;;;;;;8.40;2.72;;;25.60;95.30;;;;;;5009424;28;20072;-61
2021/07/08 11:50:36;;;;;;;4.90;2.58;;;25.80;94.90;;;;;;5009575;28;20081;-62
2021/07/08 11:53:17;;;;;;;3.35;2.10;;;25.90;96.40;;;;;;5009127;28;20128;-62
2021/07/08 11:55:48;;;;;;;6.05;3.50;;;26.40;96.40;;;;;;4990886;28;20047;-62
2021/07/08 11:58:21;;;;;;;7.45;3.05;;;26.50;95.20;;;;;;4999312;28;20066;-62
2021/07/08 12:00:50;;;;;;;5.35;2.70;;;26.30;96.90;;;;;;5006269;28;20054;-62
2021/07/08 12:03:41;;;;;;;11.45;3.20;;;26.00;96.80;;;;;;5003672;28;20042;-61
2021/07/08 12:06:18;;;;;;;5.75;3.70;;;25.60;96.90;;;;;;5005221;28;20391;-59
2021/07/08 12:08:46;;;;;;;6.13;3.97;;;25.50;97.20;;;;;;4999596;28;20104;-61
2021/07/08 12:11:16;;;;;;;8.52;3.80;;;25.30;97.00;;;;;;5004620;28;20046;-61
2021/07/08 12:13:58;;;;;;;7.03;3.20;;;25.00;97.80;;;;;;5005596;28;20038;-61
2021/07/08 12:16:42;;;;;;;6.78;3.55;;;25.20;98.30;;;;;;5002389;28;20110;-61
2021/07/08 12:19:22;;;;;;;7.05;3.75;;;25.00;98.10;;;;;;4999232;28;20043;-62
2021/07/08 12:21:49;;;;;;;13.73;3.50;;;25.30;98.90;;;;;;5001002;28;20047;-61
2021/07/08 12:24:33;;;;;;;7.38;3.85;;;25.30;98.60;;;;;;5002967;28;20054;-62
2021/07/08 12:27:00;;;;;;;5.07;3.35;;;25.50;97.50;;;;;;5002863;28;20042;-62
2021/07/08 12:29:28;;;;;;;;;;;25.80;98.10;;;;;;4994620;28;20057;-62
2021/07/08 12:32:08;;;;;;;4.90;2.92;;;26.10;97.70;;;;;;5001569;28;19921;-62
2021/07/08 12:34:37;;;;;;;6.05;2.42;;;26.20;96.20;;;;;;5003868;28;20043;-62
2021/07/08 12:37:32;;;;;;;6.70;2.55;;;26.00;94.50;;;;;;5002114;28;20085;-62
2021/07/08 12:40:13;;;;;;;3.03;1.80;;;26.00;95.60;;;;;;4994041;28;20537;-63
2021/07/08 12:42:40;;;;;;;5.88;2.28;;;26.80;96.30;;;;;;5002013;28;20046;-62
2021/07/08 12:45:26;;;;;;;3.78;2.05;;;27.40;95.10;;;;;;4997931;28;20078;-62
2021/07/08 12:47:54;;;;;;;6.50;2.47;;;27.70;94.80;;;;;;4987551;28;20082;-62
2021/07/08 12:50:34;;;;;;;7.40;2.78;;;27.90;93.10;;;;;;5005547;28;20046;-61
2021/07/08 12:53:02;;;;;;;5.18;2.00;;;27.90;83.20;;;;;;5003503;28;20414;-61
2021/07/08 12:55:37;;;;;;;4.82;2.10;;;27.20;89.70;;;;;;5005438;28;20043;-62